sensor_id;sensor_type;location;lat;lon;timestamp;temperature;humidity
17992;DHT22;9121;50.926;5.340;2023-04-15T00:02:15;9.40;1.00
17992;DHT22;9121;50.926;5.340;2023-04-15T00:04:43;9.50;1.00
17992;DHT22;9121;50.926;5.340;2023-04-15T00:07:10;9.50;1.00
17992;DHT22;9121;50.926;5.340;2023-04-15T00:09:38;9.50;1.00
17992;DHT22;9121;50.926;5.340;2023-04-15T00:12:05;9.40;1.00
17992;DHT22;9121;50.926;5.340;2023-04-15T00:14:33;9.30;1.00
17992;DHT22;9121;50.926;5.340;2023-04-15T00:17:00;9.40;1.00
17992;DHT22;9121;50.926;5.340;2023-04-15T00:19:28;9.30;1.00
17992;DHT22;9121;50.926;5.340;2023-04-15T00:21:55;9.20;1.00
17992;DHT22;9121;50.926;5.340;2023-04-15T00:24:22;9.10;1.00
17992;DHT22;9121;50.926;5.340;2023-04-15T00:26:50;9.00;1.00
17992;DHT22;9121;50.926;5.340;2023-04-15T00:29:17;9.00;1.00
17992;DHT22;9121;50.926;5.340;2023-04-15T00:31:44;9.10;1.00
17992;DHT22;9121;50.926;5.340;2023-04-15T00:34:11;9.00;1.00
17992;DHT22;9121;50.926;5.340;2023-04-15T00:36:38;8.90;1.00
17992;DHT22;9121;50.926;5.340;2023-04-15T00:39:05;8.90;1.00
17992;DHT22;9121;50.926;5.340;2023-04-15T00:41:32;9.00;1.00
17992;DHT22;9121;50.926;5.340;2023-04-15T00:44:01;9.10;1.00
17992;DHT22;9121;50.926;5.340;2023-04-15T00:46:28;9.20;1.00
17992;DHT22;9121;50.926;5.340;2023-04-15T00:48:56;9.30;1.00
17992;DHT22;9121;50.926;5.340;2023-04-15T00:51:23;9.40;1.00
17992;DHT22;9121;50.926;5.340;2023-04-15T00:53:50;9.50;1.00
17992;DHT22;9121;50.926;5.340;2023-04-15T00:56:19;9.60;1.00
17992;DHT22;9121;50.926;5.340;2023-04-15T00:58:49;9.80;1.00
17992;DHT22;9121;50.926;5.340;2023-04-15T01:01:20;9.80;1.00
17992;DHT22;9121;50.926;5.340;2023-04-15T01:03:48;9.80;1.00
17992;DHT22;9121;50.926;5.340;2023-04-15T01:06:16;9.80;1.00
17992;DHT22;9121;50.926;5.340;2023-04-15T01:08:43;9.80;1.00
17992;DHT22;9121;50.926;5.340;2023-04-15T01:11:12;9.80;1.00
17992;DHT22;9121;50.926;5.340;2023-04-15T01:13:39;9.80;1.00
17992;DHT22;9121;50.926;5.340;2023-04-15T01:16:07;9.80;1.00
17992;DHT22;9121;50.926;5.340;2023-04-15T01:18:36;9.80;1.00
17992;DHT22;9121;50.926;5.340;2023-04-15T01:21:04;9.90;1.00
17992;DHT22;9121;50.926;5.340;2023-04-15T01:23:32;9.90;1.00
17992;DHT22;9121;50.926;5.340;2023-04-15T01:26:00;9.90;1.00
17992;DHT22;9121;50.926;5.340;2023-04-15T01:28:28;9.80;1.00
17992;DHT22;9121;50.926;5.340;2023-04-15T01:31:07;9.80;1.00
17992;DHT22;9121;50.926;5.340;2023-04-15T01:33:35;9.70;1.00
17992;DHT22;9121;50.926;5.340;2023-04-15T01:36:03;9.70;1.00
17992;DHT22;9121;50.926;5.340;2023-04-15T01:38:31;9.80;1.00
17992;DHT22;9121;50.926;5.340;2023-04-15T01:40:59;9.70;1.00
17992;DHT22;9121;50.926;5.340;2023-04-15T01:43:26;9.60;1.00
17992;DHT22;9121;50.926;5.340;2023-04-15T01:45:53;9.40;1.00
17992;DHT22;9121;50.926;5.340;2023-04-15T01:48:21;9.40;1.00
17992;DHT22;9121;50.926;5.340;2023-04-15T01:50:48;9.40;1.00
17992;DHT22;9121;50.926;5.340;2023-04-15T01:53:16;9.50;1.00
17992;DHT22;9121;50.926;5.340;2023-04-15T01:55:43;9.50;1.00
17992;DHT22;9121;50.926;5.340;2023-04-15T01:58:11;9.40;1.00
17992;DHT22;9121;50.926;5.340;2023-04-15T02:00:38;9.20;1.00
17992;DHT22;9121;50.926;5.340;2023-04-15T02:03:05;9.30;1.00
17992;DHT22;9121;50.926;5.340;2023-04-15T02:05:32;9.40;1.00
17992;DHT22;9121;50.926;5.340;2023-04-15T02:07:59;9.50;1.00
17992;DHT22;9121;50.926;5.340;2023-04-15T02:10:26;9.50;1.00
17992;DHT22;9121;50.926;5.340;2023-04-15T02:12:53;9.60;1.00
17992;DHT22;9121;50.926;5.340;2023-04-15T02:15:21;9.50;1.00
17992;DHT22;9121;50.926;5.340;2023-04-15T02:17:48;9.50;1.00
17992;DHT22;9121;50.926;5.340;2023-04-15T02:20:18;9.70;1.00
17992;DHT22;9121;50.926;5.340;2023-04-15T02:22:45;9.90;1.00
17992;DHT22;9121;50.926;5.340;2023-04-15T02:25:13;10.00;1.00
17992;DHT22;9121;50.926;5.340;2023-04-15T02:27:41;9.90;1.00
17992;DHT22;9121;50.926;5.340;2023-04-15T02:30:08;9.90;1.00
17992;DHT22;9121;50.926;5.340;2023-04-15T02:32:37;9.80;1.00
17992;DHT22;9121;50.926;5.340;2023-04-15T02:35:05;9.70;1.00
17992;DHT22;9121;50.926;5.340;2023-04-15T02:37:33;9.70;1.00
17992;DHT22;9121;50.926;5.340;2023-04-15T02:40:06;9.80;1.00
17992;DHT22;9121;50.926;5.340;2023-04-15T02:42:33;9.90;1.00
17992;DHT22;9121;50.926;5.340;2023-04-15T02:45:00;9.80;1.00
17992;DHT22;9121;50.926;5.340;2023-04-15T02:47:27;9.80;1.00
17992;DHT22;9121;50.926;5.340;2023-04-15T02:49:56;9.90;1.00
17992;DHT22;9121;50.926;5.340;2023-04-15T02:52:25;9.90;1.00
17992;DHT22;9121;50.926;5.340;2023-04-15T02:54:52;9.90;1.00
17992;DHT22;9121;50.926;5.340;2023-04-15T02:57:22;9.90;1.00
17992;DHT22;9121;50.926;5.340;2023-04-15T02:59:49;9.80;1.00
17992;DHT22;9121;50.926;5.340;2023-04-15T03:02:15;9.70;1.00
17992;DHT22;9121;50.926;5.340;2023-04-15T03:04:42;9.70;1.00
17992;DHT22;9121;50.926;5.340;2023-04-15T03:07:11;9.80;1.00
17992;DHT22;9121;50.926;5.340;2023-04-15T03:09:37;9.70;1.00
17992;DHT22;9121;50.926;5.340;2023-04-15T03:12:06;9.90;1.00
17992;DHT22;9121;50.926;5.340;2023-04-15T03:14:32;10.00;1.00
17992;DHT22;9121;50.926;5.340;2023-04-15T03:17:00;9.90;1.00
17992;DHT22;9121;50.926;5.340;2023-04-15T03:19:26;10.00;1.00
17992;DHT22;9121;50.926;5.340;2023-04-15T03:21:53;9.80;1.00
17992;DHT22;9121;50.926;5.340;2023-04-15T03:24:22;9.60;1.00
17992;DHT22;9121;50.926;5.340;2023-04-15T03:26:49;9.60;1.00
17992;DHT22;9121;50.926;5.340;2023-04-15T03:29:16;9.50;1.00
17992;DHT22;9121;50.926;5.340;2023-04-15T03:31:43;9.70;1.00
17992;DHT22;9121;50.926;5.340;2023-04-15T03:34:10;9.80;1.00
17992;DHT22;9121;50.926;5.340;2023-04-15T03:36:36;9.80;1.00
17992;DHT22;9121;50.926;5.340;2023-04-15T03:39:03;9.70;1.00
17992;DHT22;9121;50.926;5.340;2023-04-15T03:41:32;9.80;1.00
17992;DHT22;9121;50.926;5.340;2023-04-15T03:43:59;9.90;1.00
17992;DHT22;9121;50.926;5.340;2023-04-15T03:46:26;10.00;1.00
17992;DHT22;9121;50.926;5.340;2023-04-15T03:48:52;9.90;1.00
17992;DHT22;9121;50.926;5.340;2023-04-15T03:51:20;10.00;1.00
17992;DHT22;9121;50.926;5.340;2023-04-15T03:53:46;10.10;1.00
17992;DHT22;9121;50.926;5.340;2023-04-15T03:56:13;10.00;1.00
17992;DHT22;9121;50.926;5.340;2023-04-15T03:58:42;10.00;1.00
17992;DHT22;9121;50.926;5.340;2023-04-15T04:01:09;10.10;1.00
17992;DHT22;9121;50.926;5.340;2023-04-15T04:03:36;10.00;1.00
17992;DHT22;9121;50.926;5.340;2023-04-15T04:06:03;10.00;1.00
17992;DHT22;9121;50.926;5.340;2023-04-15T04:08:30;10.10;1.00
17992;DHT22;9121;50.926;5.340;2023-04-15T04:10:57;10.20;1.00
17992;DHT22;9121;50.926;5.340;2023-04-15T04:13:24;10.20;1.00
17992;DHT22;9121;50.926;5.340;2023-04-15T04:15:53;10.20;1.00
17992;DHT22;9121;50.926;5.340;2023-04-15T04:18:20;10.20;1.00
17992;DHT22;9121;50.926;5.340;2023-04-15T04:20:47;10.20;1.00
17992;DHT22;9121;50.926;5.340;2023-04-15T04:23:13;10.20;1.00
17992;DHT22;9121;50.926;5.340;2023-04-15T04:25:40;10.20;1.00
17992;DHT22;9121;50.926;5.340;2023-04-15T04:28:08;10.20;1.00
17992;DHT22;9121;50.926;5.340;2023-04-15T04:30:36;10.20;1.00
17992;DHT22;9121;50.926;5.340;2023-04-15T04:33:05;10.20;1.00
17992;DHT22;9121;50.926;5.340;2023-04-15T04:35:32;10.10;1.00
17992;DHT22;9121;50.926;5.340;2023-04-15T04:38:02;10.10;1.00
17992;DHT22;9121;50.926;5.340;2023-04-15T04:40:29;10.00;1.00
17992;DHT22;9121;50.926;5.340;2023-04-15T04:42:56;10.00;1.00
17992;DHT22;9121;50.926;5.340;2023-04-15T04:45:22;9.90;1.00
17992;DHT22;9121;50.926;5.340;2023-04-15T04:47:49;9.90;1.00
17992;DHT22;9121;50.926;5.340;2023-04-15T04:50:18;9.80;1.00
17992;DHT22;9121;50.926;5.340;2023-04-15T04:52:45;9.60;1.00
17992;DHT22;9121;50.926;5.340;2023-04-15T04:55:12;9.40;1.00
17992;DHT22;9121;50.926;5.340;2023-04-15T04:57:39;9.40;1.00
17992;DHT22;9121;50.926;5.340;2023-04-15T05:00:07;9.40;1.00
17992;DHT22;9121;50.926;5.340;2023-04-15T05:02:34;9.40;1.00
17992;DHT22;9121;50.926;5.340;2023-04-15T05:05:01;9.60;1.00
17992;DHT22;9121;50.926;5.340;2023-04-15T05:07:30;9.70;1.00
17992;DHT22;9121;50.926;5.340;2023-04-15T05:09:57;9.80;1.00
17992;DHT22;9121;50.926;5.340;2023-04-15T05:12:23;9.70;1.00
17992;DHT22;9121;50.926;5.340;2023-04-15T05:14:50;9.70;1.00
17992;DHT22;9121;50.926;5.340;2023-04-15T05:17:17;9.80;1.00
17992;DHT22;9121;50.926;5.340;2023-04-15T05:19:44;9.80;1.00
17992;DHT22;9121;50.926;5.340;2023-04-15T05:22:11;9.90;1.00
17992;DHT22;9121;50.926;5.340;2023-04-15T05:24:40;10.00;1.00
17992;DHT22;9121;50.926;5.340;2023-04-15T05:27:06;10.10;1.00
17992;DHT22;9121;50.926;5.340;2023-04-15T05:29:36;10.00;1.00
17992;DHT22;9121;50.926;5.340;2023-04-15T05:32:03;10.00;1.00
17992;DHT22;9121;50.926;5.340;2023-04-15T05:34:30;9.90;1.00
17992;DHT22;9121;50.926;5.340;2023-04-15T05:36:57;10.00;1.00
17992;DHT22;9121;50.926;5.340;2023-04-15T05:39:24;10.00;1.00
17992;DHT22;9121;50.926;5.340;2023-04-15T05:41:52;10.00;1.00
17992;DHT22;9121;50.926;5.340;2023-04-15T05:44:20;10.00;1.00
17992;DHT22;9121;50.926;5.340;2023-04-15T05:46:47;10.00;1.00
17992;DHT22;9121;50.926;5.340;2023-04-15T05:49:14;10.00;1.00
17992;DHT22;9121;50.926;5.340;2023-04-15T05:51:41;10.00;1.00
17992;DHT22;9121;50.926;5.340;2023-04-15T05:54:07;9.90;1.00
17992;DHT22;9121;50.926;5.340;2023-04-15T05:56:34;10.00;1.00
17992;DHT22;9121;50.926;5.340;2023-04-15T05:59:03;10.00;1.00
17992;DHT22;9121;50.926;5.340;2023-04-15T06:01:29;10.00;1.00
17992;DHT22;9121;50.926;5.340;2023-04-15T06:03:56;10.00;1.00
17992;DHT22;9121;50.926;5.340;2023-04-15T06:06:23;10.10;1.00
17992;DHT22;9121;50.926;5.340;2023-04-15T06:08:51;10.20;1.00
17992;DHT22;9121;50.926;5.340;2023-04-15T06:11:20;10.20;1.00
17992;DHT22;9121;50.926;5.340;2023-04-15T06:13:47;10.10;1.00
17992;DHT22;9121;50.926;5.340;2023-04-15T06:16:16;10.10;1.00
17992;DHT22;9121;50.926;5.340;2023-04-15T06:18:43;10.00;1.00
17992;DHT22;9121;50.926;5.340;2023-04-15T06:21:10;9.90;1.00
17992;DHT22;9121;50.926;5.340;2023-04-15T06:23:37;9.90;1.00
17992;DHT22;9121;50.926;5.340;2023-04-15T06:26:05;10.00;1.00
17992;DHT22;9121;50.926;5.340;2023-04-15T06:28:32;10.10;1.00
17992;DHT22;9121;50.926;5.340;2023-04-15T06:30:59;10.10;1.00
17992;DHT22;9121;50.926;5.340;2023-04-15T06:33:28;10.20;1.00
17992;DHT22;9121;50.926;5.340;2023-04-15T06:35:55;10.20;1.00
17992;DHT22;9121;50.926;5.340;2023-04-15T06:38:22;10.20;1.00
17992;DHT22;9121;50.926;5.340;2023-04-15T06:40:49;10.30;1.00
17992;DHT22;9121;50.926;5.340;2023-04-15T06:43:16;10.40;1.00
17992;DHT22;9121;50.926;5.340;2023-04-15T06:45:43;10.40;1.00
17992;DHT22;9121;50.926;5.340;2023-04-15T06:48:10;10.40;1.00
17992;DHT22;9121;50.926;5.340;2023-04-15T06:50:39;10.40;1.00
17992;DHT22;9121;50.926;5.340;2023-04-15T06:53:06;10.40;1.00
17992;DHT22;9121;50.926;5.340;2023-04-15T06:55:33;10.40;1.00
17992;DHT22;9121;50.926;5.340;2023-04-15T06:58:00;10.50;1.00
17992;DHT22;9121;50.926;5.340;2023-04-15T07:00:27;10.70;1.00
17992;DHT22;9121;50.926;5.340;2023-04-15T07:02:54;10.80;1.00
17992;DHT22;9121;50.926;5.340;2023-04-15T07:05:21;11.00;1.00
17992;DHT22;9121;50.926;5.340;2023-04-15T07:07:49;11.00;1.00
17992;DHT22;9121;50.926;5.340;2023-04-15T07:10:17;11.10;1.00
17992;DHT22;9121;50.926;5.340;2023-04-15T07:12:45;11.20;1.00
17992;DHT22;9121;50.926;5.340;2023-04-15T07:15:11;11.10;1.00
17992;DHT22;9121;50.926;5.340;2023-04-15T07:17:39;11.20;1.00
17992;DHT22;9121;50.926;5.340;2023-04-15T07:20:07;11.20;1.00
17992;DHT22;9121;50.926;5.340;2023-04-15T07:22:34;11.20;1.00
17992;DHT22;9121;50.926;5.340;2023-04-15T07:25:03;11.20;1.00
17992;DHT22;9121;50.926;5.340;2023-04-15T07:27:30;11.20;1.00
17992;DHT22;9121;50.926;5.340;2023-04-15T07:29:57;11.20;1.00
17992;DHT22;9121;50.926;5.340;2023-04-15T07:32:24;11.40;1.00
17992;DHT22;9121;50.926;5.340;2023-04-15T07:34:51;11.40;99.90
17992;DHT22;9121;50.926;5.340;2023-04-15T07:37:18;11.50;1.00
17992;DHT22;9121;50.926;5.340;2023-04-15T07:39:45;11.60;1.00
17992;DHT22;9121;50.926;5.340;2023-04-15T07:42:13;11.80;1.00
17992;DHT22;9121;50.926;5.340;2023-04-15T07:44:40;11.90;1.00
17992;DHT22;9121;50.926;5.340;2023-04-15T07:47:07;12.10;1.00
17992;DHT22;9121;50.926;5.340;2023-04-15T07:49:34;12.30;99.90
17992;DHT22;9121;50.926;5.340;2023-04-15T07:52:01;12.40;99.90
17992;DHT22;9121;50.926;5.340;2023-04-15T07:54:28;12.40;99.90
17992;DHT22;9121;50.926;5.340;2023-04-15T07:56:55;12.50;99.90
17992;DHT22;9121;50.926;5.340;2023-04-15T07:59:23;12.60;99.90
17992;DHT22;9121;50.926;5.340;2023-04-15T08:01:52;12.80;99.90
17992;DHT22;9121;50.926;5.340;2023-04-15T08:04:19;12.70;99.90
17992;DHT22;9121;50.926;5.340;2023-04-15T08:06:45;12.50;99.90
17992;DHT22;9121;50.926;5.340;2023-04-15T08:09:14;12.40;99.90
17992;DHT22;9121;50.926;5.340;2023-04-15T08:11:41;12.60;99.90
17992;DHT22;9121;50.926;5.340;2023-04-15T08:14:08;12.80;99.90
17992;DHT22;9121;50.926;5.340;2023-04-15T08:16:37;12.90;99.90
17992;DHT22;9121;50.926;5.340;2023-04-15T08:19:03;13.00;99.90
17992;DHT22;9121;50.926;5.340;2023-04-15T08:21:30;13.00;99.90
17992;DHT22;9121;50.926;5.340;2023-04-15T08:23:57;12.90;99.90
17992;DHT22;9121;50.926;5.340;2023-04-15T08:26:25;12.90;99.90
17992;DHT22;9121;50.926;5.340;2023-04-15T08:28:51;12.90;99.90
17992;DHT22;9121;50.926;5.340;2023-04-15T08:31:18;12.80;99.90
17992;DHT22;9121;50.926;5.340;2023-04-15T08:33:47;12.90;99.90
17992;DHT22;9121;50.926;5.340;2023-04-15T08:36:16;12.90;99.90
17992;DHT22;9121;50.926;5.340;2023-04-15T08:38:43;13.00;99.90
17992;DHT22;9121;50.926;5.340;2023-04-15T08:41:19;13.00;99.90
17992;DHT22;9121;50.926;5.340;2023-04-15T08:43:52;12.90;99.90
17992;DHT22;9121;50.926;5.340;2023-04-15T08:46:20;13.20;1.00
17992;DHT22;9121;50.926;5.340;2023-04-15T08:48:49;13.30;99.90
17992;DHT22;9121;50.926;5.340;2023-04-15T08:51:17;13.20;99.90
17992;DHT22;9121;50.926;5.340;2023-04-15T08:53:44;13.30;99.90
17992;DHT22;9121;50.926;5.340;2023-04-15T08:56:13;13.20;99.90
17992;DHT22;9121;50.926;5.340;2023-04-15T08:58:41;13.10;99.90
17992;DHT22;9121;50.926;5.340;2023-04-15T09:01:10;13.20;99.90
17992;DHT22;9121;50.926;5.340;2023-04-15T09:03:38;13.30;99.90
17992;DHT22;9121;50.926;5.340;2023-04-15T09:06:06;13.40;1.00
17992;DHT22;9121;50.926;5.340;2023-04-15T09:08:33;13.40;99.90
17992;DHT22;9121;50.926;5.340;2023-04-15T09:11:00;13.30;99.90
17992;DHT22;9121;50.926;5.340;2023-04-15T09:13:28;13.30;99.90
17992;DHT22;9121;50.926;5.340;2023-04-15T09:15:55;13.30;99.90
17992;DHT22;9121;50.926;5.340;2023-04-15T09:18:30;13.50;99.90
17992;DHT22;9121;50.926;5.340;2023-04-15T09:21:03;13.50;99.90
17992;DHT22;9121;50.926;5.340;2023-04-15T09:23:32;13.70;99.90
17992;DHT22;9121;50.926;5.340;2023-04-15T09:26:00;13.80;99.90
17992;DHT22;9121;50.926;5.340;2023-04-15T09:28:27;13.70;99.90
17992;DHT22;9121;50.926;5.340;2023-04-15T09:30:55;13.70;99.90
17992;DHT22;9121;50.926;5.340;2023-04-15T09:33:24;13.70;99.90
17992;DHT22;9121;50.926;5.340;2023-04-15T09:35:59;13.70;99.90
17992;DHT22;9121;50.926;5.340;2023-04-15T09:38:27;13.60;16.80
17992;DHT22;9121;50.926;5.340;2023-04-15T09:40:55;13.50;99.90
17992;DHT22;9121;50.926;5.340;2023-04-15T09:43:25;13.50;1.00
17992;DHT22;9121;50.926;5.340;2023-04-15T09:46:02;13.50;1.00
17992;DHT22;9121;50.926;5.340;2023-04-15T09:48:29;13.60;1.00
17992;DHT22;9121;50.926;5.340;2023-04-15T09:50:57;13.70;1.00
17992;DHT22;9121;50.926;5.340;2023-04-15T09:53:25;13.60;1.00
17992;DHT22;9121;50.926;5.340;2023-04-15T09:55:56;13.60;1.00
17992;DHT22;9121;50.926;5.340;2023-04-15T09:58:24;13.50;1.00
17992;DHT22;9121;50.926;5.340;2023-04-15T10:00:54;13.70;1.00
17992;DHT22;9121;50.926;5.340;2023-04-15T10:03:22;13.90;1.00
17992;DHT22;9121;50.926;5.340;2023-04-15T10:05:50;14.10;1.00
17992;DHT22;9121;50.926;5.340;2023-04-15T10:08:19;14.10;1.00
17992;DHT22;9121;50.926;5.340;2023-04-15T10:10:47;14.10;1.00
17992;DHT22;9121;50.926;5.340;2023-04-15T10:13:17;14.20;1.00
17992;DHT22;9121;50.926;5.340;2023-04-15T10:15:49;14.20;99.90
17992;DHT22;9121;50.926;5.340;2023-04-15T10:18:18;14.30;99.90
17992;DHT22;9121;50.926;5.340;2023-04-15T10:20:47;14.20;1.00
17992;DHT22;9121;50.926;5.340;2023-04-15T10:23:15;14.20;1.00
17992;DHT22;9121;50.926;5.340;2023-04-15T10:25:43;14.20;99.90
17992;DHT22;9121;50.926;5.340;2023-04-15T10:28:11;14.30;1.00
17992;DHT22;9121;50.926;5.340;2023-04-15T10:30:40;14.30;1.00
17992;DHT22;9121;50.926;5.340;2023-04-15T10:33:09;14.30;99.90
17992;DHT22;9121;50.926;5.340;2023-04-15T10:35:36;14.30;1.00
17992;DHT22;9121;50.926;5.340;2023-04-15T10:38:34;14.10;1.00
17992;DHT22;9121;50.926;5.340;2023-04-15T10:41:16;14.00;99.90
17992;DHT22;9121;50.926;5.340;2023-04-15T10:43:48;14.10;1.00
17992;DHT22;9121;50.926;5.340;2023-04-15T10:46:22;14.10;1.00
17992;DHT22;9121;50.926;5.340;2023-04-15T10:48:51;14.30;99.90
17992;DHT22;9121;50.926;5.340;2023-04-15T10:51:29;14.50;1.00
17992;DHT22;9121;50.926;5.340;2023-04-15T10:53:57;14.40;1.00
17992;DHT22;9121;50.926;5.340;2023-04-15T10:56:24;14.50;1.00
17992;DHT22;9121;50.926;5.340;2023-04-15T10:58:51;14.60;84.20
17992;DHT22;9121;50.926;5.340;2023-04-15T11:01:20;14.50;1.00
17992;DHT22;9121;50.926;5.340;2023-04-15T11:03:48;14.40;1.00
17992;DHT22;9121;50.926;5.340;2023-04-15T11:06:16;14.50;1.00
17992;DHT22;9121;50.926;5.340;2023-04-15T11:08:56;14.60;99.90
17992;DHT22;9121;50.926;5.340;2023-04-15T11:14:25;15.10;52.00
17992;DHT22;9121;50.926;5.340;2023-04-15T11:16:53;15.20;1.00
17992;DHT22;9121;50.926;5.340;2023-04-15T11:19:20;15.40;1.00
17992;DHT22;9121;50.926;5.340;2023-04-15T11:21:47;15.50;1.00
17992;DHT22;9121;50.926;5.340;2023-04-15T11:24:23;15.30;99.90
17992;DHT22;9121;50.926;5.340;2023-04-15T11:26:56;14.90;99.90
17992;DHT22;9121;50.926;5.340;2023-04-15T11:29:28;15.10;99.90
17992;DHT22;9121;50.926;5.340;2023-04-15T11:32:04;15.50;1.00
17992;DHT22;9121;50.926;5.340;2023-04-15T11:34:32;15.70;1.00
17992;DHT22;9121;50.926;5.340;2023-04-15T11:37:03;15.80;3.20
17992;DHT22;9121;50.926;5.340;2023-04-15T11:39:30;15.70;1.00
17992;DHT22;9121;50.926;5.340;2023-04-15T11:41:57;15.80;1.00
17992;DHT22;9121;50.926;5.340;2023-04-15T11:44:24;16.00;99.90
17992;DHT22;9121;50.926;5.340;2023-04-15T11:46:51;15.70;1.00
17992;DHT22;9121;50.926;5.340;2023-04-15T11:49:29;15.60;99.90
17992;DHT22;9121;50.926;5.340;2023-04-15T11:51:58;16.00;1.00
17992;DHT22;9121;50.926;5.340;2023-04-15T11:54:25;16.30;1.00
17992;DHT22;9121;50.926;5.340;2023-04-15T11:56:52;16.30;1.00
17992;DHT22;9121;50.926;5.340;2023-04-15T11:59:21;16.20;1.00
17992;DHT22;9121;50.926;5.340;2023-04-15T12:01:48;16.20;99.90
17992;DHT22;9121;50.926;5.340;2023-04-15T12:04:17;16.00;99.90
17992;DHT22;9121;50.926;5.340;2023-04-15T12:06:48;16.20;1.00
17992;DHT22;9121;50.926;5.340;2023-04-15T12:09:15;16.50;58.30
17992;DHT22;9121;50.926;5.340;2023-04-15T12:11:44;16.80;99.90
17992;DHT22;9121;50.926;5.340;2023-04-15T12:14:15;16.80;1.00
17992;DHT22;9121;50.926;5.340;2023-04-15T12:16:45;16.90;99.90
17992;DHT22;9121;50.926;5.340;2023-04-15T12:19:15;17.10;1.00
17992;DHT22;9121;50.926;5.340;2023-04-15T12:21:45;17.00;1.00
17992;DHT22;9121;50.926;5.340;2023-04-15T12:24:14;16.90;1.00
17992;DHT22;9121;50.926;5.340;2023-04-15T12:26:46;17.10;1.00
17992;DHT22;9121;50.926;5.340;2023-04-15T12:29:14;17.50;99.90
17992;DHT22;9121;50.926;5.340;2023-04-15T12:31:50;18.00;28.80
17992;DHT22;9121;50.926;5.340;2023-04-15T12:34:18;18.20;1.00
17992;DHT22;9121;50.926;5.340;2023-04-15T12:36:51;18.40;1.00
17992;DHT22;9121;50.926;5.340;2023-04-15T12:39:22;19.10;66.80
17992;DHT22;9121;50.926;5.340;2023-04-15T12:41:50;19.50;1.00
17992;DHT22;9121;50.926;5.340;2023-04-15T12:44:17;19.60;1.00
17992;DHT22;9121;50.926;5.340;2023-04-15T12:46:44;19.80;1.00
17992;DHT22;9121;50.926;5.340;2023-04-15T12:49:11;19.70;1.00
17992;DHT22;9121;50.926;5.340;2023-04-15T12:51:40;19.90;1.00
17992;DHT22;9121;50.926;5.340;2023-04-15T12:54:07;19.80;1.00
17992;DHT22;9121;50.926;5.340;2023-04-15T12:56:36;19.90;99.90
17992;DHT22;9121;50.926;5.340;2023-04-15T12:59:02;20.10;1.00
17992;DHT22;9121;50.926;5.340;2023-04-15T13:01:29;19.90;99.90
17992;DHT22;9121;50.926;5.340;2023-04-15T13:03:56;20.00;1.00
17992;DHT22;9121;50.926;5.340;2023-04-15T13:06:23;19.50;1.00
17992;DHT22;9121;50.926;5.340;2023-04-15T13:08:50;19.60;1.00
17992;DHT22;9121;50.926;5.340;2023-04-15T13:11:19;19.80;99.90
17992;DHT22;9121;50.926;5.340;2023-04-15T13:13:48;19.50;1.00
17992;DHT22;9121;50.926;5.340;2023-04-15T13:16:14;20.00;1.00
17992;DHT22;9121;50.926;5.340;2023-04-15T13:18:41;20.20;1.00
17992;DHT22;9121;50.926;5.340;2023-04-15T13:21:10;20.00;1.00
17992;DHT22;9121;50.926;5.340;2023-04-15T13:23:38;20.00;1.00
17992;DHT22;9121;50.926;5.340;2023-04-15T13:26:05;19.90;1.00
17992;DHT22;9121;50.926;5.340;2023-04-15T13:28:32;20.10;99.90
17992;DHT22;9121;50.926;5.340;2023-04-15T13:31:00;20.10;1.00
17992;DHT22;9121;50.926;5.340;2023-04-15T13:33:27;20.10;1.00
17992;DHT22;9121;50.926;5.340;2023-04-15T13:35:54;20.10;1.00
17992;DHT22;9121;50.926;5.340;2023-04-15T13:38:21;20.30;1.00
17992;DHT22;9121;50.926;5.340;2023-04-15T13:40:48;20.60;1.00
17992;DHT22;9121;50.926;5.340;2023-04-15T13:43:15;21.00;1.00
17992;DHT22;9121;50.926;5.340;2023-04-15T13:45:43;20.70;1.00
17992;DHT22;9121;50.926;5.340;2023-04-15T13:48:11;20.60;1.00
17992;DHT22;9121;50.926;5.340;2023-04-15T13:50:38;20.20;1.00
17992;DHT22;9121;50.926;5.340;2023-04-15T13:53:05;19.70;1.00
17992;DHT22;9121;50.926;5.340;2023-04-15T13:55:32;19.20;1.00
17992;DHT22;9121;50.926;5.340;2023-04-15T13:58:00;19.50;1.00
17992;DHT22;9121;50.926;5.340;2023-04-15T14:00:27;19.80;1.00
17992;DHT22;9121;50.926;5.340;2023-04-15T14:02:54;19.90;1.00
17992;DHT22;9121;50.926;5.340;2023-04-15T14:05:22;20.50;1.00
17992;DHT22;9121;50.926;5.340;2023-04-15T14:07:49;21.20;1.00
17992;DHT22;9121;50.926;5.340;2023-04-15T14:10:16;21.30;1.00
17992;DHT22;9121;50.926;5.340;2023-04-15T14:12:43;21.30;3.20
17992;DHT22;9121;50.926;5.340;2023-04-15T14:15:10;22.10;1.00
17992;DHT22;9121;50.926;5.340;2023-04-15T14:17:37;22.00;1.00
17992;DHT22;9121;50.926;5.340;2023-04-15T14:20:07;21.10;1.00
17992;DHT22;9121;50.926;5.340;2023-04-15T14:22:35;20.00;1.00
17992;DHT22;9121;50.926;5.340;2023-04-15T14:25:02;19.70;1.00
17992;DHT22;9121;50.926;5.340;2023-04-15T14:27:29;20.50;1.00
17992;DHT22;9121;50.926;5.340;2023-04-15T14:29:56;20.90;99.90
17992;DHT22;9121;50.926;5.340;2023-04-15T14:32:24;20.50;99.90
17992;DHT22;9121;50.926;5.340;2023-04-15T14:34:51;20.70;99.90
17992;DHT22;9121;50.926;5.340;2023-04-15T14:37:18;20.90;99.90
17992;DHT22;9121;50.926;5.340;2023-04-15T14:39:46;20.60;99.90
17992;DHT22;9121;50.926;5.340;2023-04-15T14:42:13;19.60;99.90
17992;DHT22;9121;50.926;5.340;2023-04-15T14:44:40;19.30;99.90
17992;DHT22;9121;50.926;5.340;2023-04-15T14:47:08;18.80;99.90
17992;DHT22;9121;50.926;5.340;2023-04-15T14:49:35;19.10;99.90
17992;DHT22;9121;50.926;5.340;2023-04-15T14:52:02;19.00;99.90
17992;DHT22;9121;50.926;5.340;2023-04-15T14:54:29;18.80;99.90
17992;DHT22;9121;50.926;5.340;2023-04-15T14:56:57;18.40;99.90
17992;DHT22;9121;50.926;5.340;2023-04-15T14:59:26;18.00;99.90
17992;DHT22;9121;50.926;5.340;2023-04-15T15:01:53;17.60;1.00
17992;DHT22;9121;50.926;5.340;2023-04-15T15:04:20;18.00;1.00
17992;DHT22;9121;50.926;5.340;2023-04-15T15:06:47;18.60;1.00
17992;DHT22;9121;50.926;5.340;2023-04-15T15:09:15;18.50;1.00
17992;DHT22;9121;50.926;5.340;2023-04-15T15:11:41;18.00;1.00
17992;DHT22;9121;50.926;5.340;2023-04-15T15:14:10;18.10;1.00
17992;DHT22;9121;50.926;5.340;2023-04-15T15:16:37;19.30;1.00
17992;DHT22;9121;50.926;5.340;2023-04-15T15:19:04;20.40;1.00
17992;DHT22;9121;50.926;5.340;2023-04-15T15:21:31;20.70;99.90
17992;DHT22;9121;50.926;5.340;2023-04-15T15:23:58;21.60;99.90
17992;DHT22;9121;50.926;5.340;2023-04-15T15:26:25;22.10;99.90
17992;DHT22;9121;50.926;5.340;2023-04-15T15:28:52;22.30;99.90
17992;DHT22;9121;50.926;5.340;2023-04-15T15:31:21;22.00;99.90
17992;DHT22;9121;50.926;5.340;2023-04-15T15:33:47;21.40;99.90
17992;DHT22;9121;50.926;5.340;2023-04-15T15:36:16;20.90;99.90
17992;DHT22;9121;50.926;5.340;2023-04-15T15:38:43;19.80;99.90
17992;DHT22;9121;50.926;5.340;2023-04-15T15:41:10;19.10;1.00
17992;DHT22;9121;50.926;5.340;2023-04-15T15:43:37;18.30;99.90
17992;DHT22;9121;50.926;5.340;2023-04-15T15:46:04;18.00;99.90
17992;DHT22;9121;50.926;5.340;2023-04-15T15:48:32;17.80;99.90
17992;DHT22;9121;50.926;5.340;2023-04-15T15:51:00;17.60;99.90
17992;DHT22;9121;50.926;5.340;2023-04-15T15:53:28;17.20;99.90
17992;DHT22;9121;50.926;5.340;2023-04-15T15:55:55;17.20;99.90
17992;DHT22;9121;50.926;5.340;2023-04-15T15:58:22;17.10;99.90
17992;DHT22;9121;50.926;5.340;2023-04-15T16:00:49;17.10;1.00
17992;DHT22;9121;50.926;5.340;2023-04-15T16:03:16;17.10;1.00
17992;DHT22;9121;50.926;5.340;2023-04-15T16:05:44;17.00;1.00
17992;DHT22;9121;50.926;5.340;2023-04-15T16:08:12;16.90;1.00
17992;DHT22;9121;50.926;5.340;2023-04-15T16:10:39;16.70;1.00